Time;durP1;ratioP1;P1;durP2;ratioP2;P2;SDS_P1;SDS_P2;PMS_P1;PMS_P2;Temp;Humidity;BMP_temperature;BMP_pressure;BME280_temperature;BME280_humidity;BME280_pressure;Samples;Min_cycle;Max_cycle;Signal;HPM_P1;HPM_P2
2020/12/05 00:01:15;;;;;;;;;;;4.50;75.20;;;;;;5035125;28;20074;-85
2020/12/05 00:03:41;;;;;;;;;;;4.50;75.20;;;;;;5034530;28;19917;-85
2020/12/05 00:06:06;;;;;;;;;;;4.40;75.20;;;;;;5034002;28;19925;-85
2020/12/05 00:08:32;;;;;;;;;;;4.40;75.20;;;;;;5035231;28;19936;-85
2020/12/05 00:10:58;;;;;;;;;;;4.40;75.20;;;;;;5035432;28;20386;-85
2020/12/05 00:13:23;;;;;;;;;;;4.40;75.20;;;;;;5033794;28;19913;-85
2020/12/05 00:15:49;;;;;;;;;;;4.40;75.20;;;;;;5034087;28;19913;-85
2020/12/05 00:18:14;;;;;;;;;;;4.40;75.20;;;;;;5016905;28;19921;-85
2020/12/05 00:20:40;;;;;;;;;;;4.40;75.30;;;;;;5034248;28;20355;-85
2020/12/05 00:23:05;;;;;;;;;;;4.40;75.30;;;;;;5033638;28;19921;-85
2020/12/05 00:25:31;;;;;;;;;;;4.40;75.30;;;;;;5033015;28;19960;-85
2020/12/05 00:27:56;;;;;;;;;;;4.30;75.20;;;;;;5033393;28;20029;-85
2020/12/05 00:30:27;;;;;;;;;;;4.30;75.20;;;;;;5017642;28;20362;-83
2020/12/05 00:32:53;;;;;;;;;;;4.30;75.30;;;;;;5035348;28;19913;-83
2020/12/05 00:35:19;;;;;;;;;;;4.30;75.30;;;;;;5032993;28;19987;-83
2020/12/05 00:37:44;;;;;;;;;;;4.30;75.30;;;;;;5035639;28;19921;-83
2020/12/05 00:40:10;;;;;;;;;;;4.30;75.30;;;;;;5034417;28;20378;-83
2020/12/05 00:42:35;;;;;;;;;;;4.30;75.30;;;;;;5034112;28;19963;-83
2020/12/05 00:45:01;;;;;;;;;;;4.30;75.30;;;;;;5035435;28;20359;-84
2020/12/05 00:47:28;;;;;;;;;;;4.30;75.30;;;;;;5034178;28;19972;-83
2020/12/05 00:49:54;;;;;;;;;;;4.30;75.30;;;;;;5018087;28;20341;-83
2020/12/05 00:52:21;;;;;;;;;;;4.30;75.30;;;;;;5034012;28;19909;-83
2020/12/05 00:54:47;;;;;;;;;;;4.30;75.30;;;;;;5035428;28;19924;-83
2020/12/05 00:57:12;;;;;;;;;;;4.30;75.30;;;;;;5034244;28;19921;-83
2020/12/05 00:59:38;;;;;;;;;;;4.20;75.30;;;;;;5017319;28;20341;-84
2020/12/05 01:02:03;;;;;;;;;;;4.20;75.30;;;;;;5035398;28;19921;-83
2020/12/05 01:04:29;;;;;;;;;;;4.20;75.30;;;;;;5017498;28;19917;-84
2020/12/05 01:06:54;;;;;;;;;;;4.20;75.30;;;;;;5034870;28;19913;-83
2020/12/05 01:09:20;;;;;;;;;;;4.20;75.30;;;;;;5017244;28;19924;-83
2020/12/05 01:11:46;;;;;;;;;;;4.20;75.30;;;;;;5034068;28;19913;-84
2020/12/05 01:14:12;;;;;;;;;;;4.20;75.30;;;;;;5035162;28;19976;-84
2020/12/05 01:16:37;;;;;;;;;;;4.20;75.30;;;;;;5033494;28;19914;-84
2020/12/05 01:19:03;;;;;;;;;;;4.20;75.30;;;;;;5017248;28;20012;-84
2020/12/05 01:21:28;;;;;;;;;;;4.20;75.30;;;;;;5034599;28;19917;-84
2020/12/05 01:23:54;;;;;;;;;;;4.20;75.30;;;;;;5034823;28;19917;-84
2020/12/05 01:26:22;;;;;;;;;;;4.10;75.30;;;;;;5032332;28;20397;-84
2020/12/05 01:28:48;;;;;;;;;;;4.10;75.30;;;;;;5017083;28;20410;-87
2020/12/05 01:31:13;;;;;;;;;;;4.10;75.30;;;;;;5033812;28;19940;-86
2020/12/05 01:33:39;;;;;;;;;;;4.10;75.30;;;;;;5034517;28;19909;-86
2020/12/05 01:36:05;;;;;;;;;;;4.10;75.30;;;;;;5034942;28;20008;-86
2020/12/05 01:38:30;;;;;;;;;;;4.10;75.30;;;;;;5016553;28;19968;-86
2020/12/05 01:40:58;;;;;;;;;;;4.10;75.30;;;;;;5033516;28;20322;-86
2020/12/05 01:43:24;;;;;;;;;;;4.10;75.30;;;;;;5034490;28;19916;-86
2020/12/05 01:45:49;;;;;;;;;;;4.10;75.30;;;;;;5034655;28;20273;-86
2020/12/05 01:48:19;;;;;;;;;;;4.00;75.30;;;;;;5034629;28;19992;-86
2020/12/05 01:50:44;;;;;;;;;;;4.00;75.30;;;;;;5034649;28;19909;-86
2020/12/05 01:53:11;;;;;;;;;;;4.00;75.30;;;;;;5034471;28;19909;-87
2020/12/05 01:55:37;;;;;;;;;;;4.00;75.30;;;;;;5034462;28;19948;-86
2020/12/05 01:58:02;;;;;;;;;;;4.00;75.30;;;;;;5016683;28;19983;-86
2020/12/05 02:00:28;;;;;;;;;;;4.00;75.30;;;;;;5016241;28;20008;-86
2020/12/05 02:02:53;;;;;;;;;;;4.00;75.30;;;;;;5033115;28;19919;-86
2020/12/05 02:05:37;;;;;;;;;;;4.00;75.30;;;;;;5033076;28;19913;-86
2020/12/05 02:08:13;;;;;;;;;;;4.00;75.40;;;;;;5033207;28;20385;-86
2020/12/05 02:10:41;;;;;;;;;;;3.90;75.30;;;;;;5031854;28;19916;-86
2020/12/05 02:13:12;;;;;;;;;;;3.90;75.30;;;;;;5033202;28;19966;-86
2020/12/05 02:15:39;;;;;;;;;;;3.90;75.40;;;;;;5032572;28;19913;-86
2020/12/05 02:18:05;;;;;;;;;;;3.90;75.40;;;;;;5033923;28;19917;-86
2020/12/05 02:20:33;;;;;;;;;;;3.90;75.40;;;;;;5033406;28;19910;-86
2020/12/05 02:23:11;;;;;;;;;;;3.90;75.40;;;;;;5032980;28;20003;-85
2020/12/05 02:25:37;;;;;;;;;;;3.90;75.40;;;;;;5045433;23;20404;-85
2020/12/05 02:28:06;;;;;;;;;;;3.90;75.40;;;;;;5072624;28;19921;-85
2020/12/05 02:30:32;;;;;;;;;;;3.90;75.40;;;;;;5055416;28;19913;-85
2020/12/05 02:32:59;;;;;;;;;;;3.90;75.40;;;;;;5072546;28;19920;-85
2020/12/05 02:35:24;;;;;;;;;;;3.90;75.50;;;;;;5073420;28;19909;-85
2020/12/05 02:37:53;;;;;;;;;;;3.80;75.40;;;;;;5055959;28;19970;-85
2020/12/05 02:40:18;;;;;;;;;;;3.90;75.50;;;;;;5073296;28;19958;-85
2020/12/05 02:42:44;;;;;;;;;;;3.80;75.40;;;;;;5072705;28;19913;-85
2020/12/05 02:45:10;;;;;;;;;;;3.90;75.50;;;;;;5072475;28;20385;-85
2020/12/05 02:47:35;;;;;;;;;;;3.80;75.50;;;;;;5072300;28;19959;-85
2020/12/05 02:50:01;;;;;;;;;;;3.80;75.50;;;;;;5055874;28;19912;-85
2020/12/05 02:52:26;;;;;;;;;;;3.80;75.50;;;;;;5073275;28;19912;-85
2020/12/05 02:54:52;;;;;;;;;;;3.80;75.50;;;;;;5055856;28;19923;-85
2020/12/05 02:57:17;;;;;;;;;;;3.80;75.50;;;;;;5073654;28;19919;-85
2020/12/05 02:59:43;;;;;;;;;;;3.80;75.50;;;;;;5071939;28;19917;-85
2020/12/05 03:02:08;;;;;;;;;;;3.80;75.50;;;;;;5073415;28;20395;-85
2020/12/05 03:04:34;;;;;;;;;;;3.80;75.50;;;;;;5071694;28;19916;-85
2020/12/05 03:07:05;;;;;;;;;;;3.80;75.60;;;;;;5071976;28;19909;-85
2020/12/05 03:09:31;;;;;;;;;;;3.80;75.50;;;;;;5071781;28;19912;-85
2020/12/05 03:11:56;;;;;;;;;;;3.80;75.60;;;;;;5073204;28;20263;-85
2020/12/05 03:14:21;;;;;;;;;;;3.80;75.50;;;;;;5055069;28;19919;-85
2020/12/05 03:16:47;;;;;;;;;;;3.80;75.60;;;;;;5073239;28;19913;-85
2020/12/05 03:19:12;;;;;;;;;;;3.80;75.60;;;;;;5057847;28;20381;-85
2020/12/05 03:21:38;;;;;;;;;;;3.80;75.60;;;;;;5059265;28;19924;-85
2020/12/05 03:24:03;;;;;;;;;;;3.70;75.50;;;;;;5077273;28;20006;-85
2020/12/05 03:26:29;;;;;;;;;;;3.70;75.50;;;;;;5075853;28;19924;-84
2020/12/05 03:28:55;;;;;;;;;;;3.70;75.50;;;;;;5059427;28;19913;-85
2020/12/05 03:32:08;;;;;;;;;;;3.70;75.50;;;;;;5058868;28;21854;-85
2020/12/05 03:34:10;;;;;;;;;;;3.70;75.60;;;;;;5074050;28;19913;-85
2020/12/05 03:36:35;;;;;;;;;;;3.70;75.60;;;;;;5058869;28;19912;-85
2020/12/05 03:39:01;;;;;;;;;;;3.60;75.50;;;;;;5076662;28;19977;-84
2020/12/05 03:41:26;;;;;;;;;;;3.70;75.60;;;;;;5076402;28;19992;-84
2020/12/05 03:43:52;;;;;;;;;;;3.70;75.60;;;;;;5075558;28;19913;-85
2020/12/05 03:46:17;;;;;;;;;;;3.60;75.60;;;;;;5077334;28;20345;-85
2020/12/05 03:48:43;;;;;;;;;;;3.60;75.60;;;;;;5058450;28;19958;-84
2020/12/05 03:51:09;;;;;;;;;;;3.60;75.60;;;;;;5076593;28;20375;-82
2020/12/05 03:53:34;;;;;;;;;;;3.60;75.60;;;;;;5075010;28;20301;-82
2020/12/05 03:56:00;;;;;;;;;;;3.60;75.60;;;;;;5075236;28;19913;-82
2020/12/05 03:58:25;;;;;;;;;;;3.60;75.60;;;;;;5074642;28;20400;-82
2020/12/05 04:00:51;;;;;;;;;;;3.50;75.50;;;;;;5076409;28;19909;-82
2020/12/05 04:03:16;;;;;;;;;;;3.50;75.50;;;;;;5076625;28;19913;-82
2020/12/05 04:05:42;;;;;;;;;;;3.50;75.50;;;;;;5058080;28;19920;-82
2020/12/05 04:08:07;;;;;;;;;;;3.50;75.50;;;;;;5076176;28;19917;-82
2020/12/05 04:10:33;;;;;;;;;;;3.50;75.50;;;;;;5074629;28;19909;-82
2020/12/05 04:12:59;;;;;;;;;;;3.50;75.50;;;;;;5076100;28;19920;-82
2020/12/05 04:15:24;;;;;;;;;;;3.40;75.50;;;;;;5074717;28;20384;-82
2020/12/05 04:17:50;;;;;;;;;;;3.50;75.60;;;;;;5076021;28;19962;-82
2020/12/05 04:20:15;;;;;;;;;;;3.40;75.50;;;;;;5074839;28;19948;-82
2020/12/05 04:22:41;;;;;;;;;;;3.40;75.50;;;;;;5075684;28;19934;-82
2020/12/05 04:25:06;;;;;;;;;;;3.40;75.50;;;;;;5057906;28;19959;-82
2020/12/05 04:27:32;;;;;;;;;;;3.40;76.20;;;;;;5057715;28;20461;-82
2020/12/05 04:29:57;;;;;;;;;;;3.40;75.50;;;;;;5057171;28;19912;-82
2020/12/05 04:32:23;;;;;;;;;;;3.40;75.50;;;;;;5075301;28;19920;-82
2020/12/05 04:34:48;;;;;;;;;;;3.40;75.60;;;;;;5074232;28;20290;-82
2020/12/05 04:37:14;;;;;;;;;;;3.30;75.50;;;;;;5075872;28;19908;-82
2020/12/05 04:39:39;;;;;;;;;;;3.30;75.50;;;;;;5074217;28;19916;-82
2020/12/05 04:42:05;;;;;;;;;;;3.30;75.50;;;;;;5075709;28;19908;-82
2020/12/05 04:44:31;;;;;;;;;;;3.30;75.50;;;;;;5074279;28;19913;-82
2020/12/05 04:46:58;;;;;;;;;;;3.30;75.50;;;;;;5075670;28;20365;-82
2020/12/05 04:49:26;;;;;;;;;;;3.30;75.50;;;;;;5075628;28;19915;-82
2020/12/05 04:51:56;;;;;;;;;;;3.20;75.50;;;;;;5074262;28;19909;-82
2020/12/05 04:54:26;;;;;;;;;;;3.20;75.50;;;;;;5075416;28;19916;-81
2020/12/05 04:56:53;;;;;;;;;;;3.20;75.50;;;;;;5075482;28;20386;-81
2020/12/05 04:59:18;;;;;;;;;;;3.20;75.50;;;;;;5074118;28;19917;-82
2020/12/05 05:01:45;;;;;;;;;;;3.20;75.50;;;;;;5057303;28;19917;-88
2020/12/05 05:04:11;;;;;;;;;;;3.20;75.60;;;;;;5075874;28;20372;-88
2020/12/05 05:06:36;;;;;;;;;;;3.20;75.60;;;;;;5054356;28;19913;-89
2020/12/05 05:09:02;;;;;;;;;;;3.20;75.60;;;;;;5055396;28;19913;-89
2020/12/05 05:11:29;;;;;;;;;;;3.20;75.60;;;;;;5039823;28;19920;-89
2020/12/05 05:13:56;;;;;;;;;;;3.20;75.60;;;;;;5038406;28;20373;-89
2020/12/05 05:16:24;;;;;;;;;;;3.10;75.50;;;;;;5059537;28;19913;-88
2020/12/05 05:18:50;;;;;;;;;;;3.10;75.60;;;;;;5072783;28;20358;-88
2020/12/05 05:21:33;;;;;;;;;;;3.10;75.60;;;;;;5059118;28;19919;-89
2020/12/05 05:24:00;;;;;;;;;;;3.10;75.60;;;;;;5061930;28;20369;-89
2020/12/05 05:26:26;;;;;;;;;;;3.10;75.60;;;;;;5074655;28;19921;-89
2020/12/05 05:28:51;;;;;;;;;;;3.10;75.60;;;;;;5044460;28;19967;-89
2020/12/05 05:33:46;;;;;;;;;;;3.10;75.60;;;;;;5077965;28;19933;-89
2020/12/05 05:36:28;;;;;;;;;;;3.00;75.50;;;;;;5074800;28;19916;-89
2020/12/05 05:39:00;;;;;;;;;;;3.00;75.60;;;;;;5091765;28;20012;-88
2020/12/05 05:41:26;;;;;;;;;;;3.00;75.60;;;;;;5074302;28;19934;-87
2020/12/05 05:43:53;;;;;;;;;;;3.00;75.60;;;;;;5056140;28;20357;-80
2020/12/05 05:46:23;;;;;;;;;;;3.00;75.60;;;;;;5074448;28;19947;-80
2020/12/05 05:48:49;;;;;;;;;;;3.00;75.60;;;;;;5073813;28;19920;-80
2020/12/05 05:51:15;;;;;;;;;;;3.00;75.60;;;;;;5072882;28;20270;-80
2020/12/05 05:53:40;;;;;;;;;;;3.00;75.60;;;;;;5055929;28;19913;-80
2020/12/05 05:56:06;;;;;;;;;;;2.90;75.60;;;;;;5056675;28;19948;-80
2020/12/05 05:58:31;;;;;;;;;;;2.90;75.60;;;;;;5055536;28;20327;-80
2020/12/05 06:01:00;;;;;;;;;;;2.90;75.60;;;;;;5072666;28;20372;-80
2020/12/05 06:03:26;;;;;;;;;;;2.90;75.70;;;;;;5093955;28;19912;-80
2020/12/05 06:05:53;;;;;;;;;;;2.90;75.60;;;;;;5094028;28;20298;-80
2020/12/05 06:08:21;;;;;;;;;;;2.90;75.70;;;;;;5075916;28;19912;-80
2020/12/05 06:10:47;;;;;;;;;;;2.90;75.70;;;;;;5093916;28;19920;-80
2020/12/05 06:13:16;;;;;;;;;;;2.80;75.60;;;;;;5076048;28;19912;-80
2020/12/05 06:15:43;;;;;;;;;;;2.80;75.60;;;;;;5094080;28;20246;-80
2020/12/05 06:18:09;;;;;;;;;;;2.80;75.70;;;;;;5075797;28;19956;-80
2020/12/05 06:20:35;;;;;;;;;;;2.80;75.70;;;;;;5058554;28;20423;-80
2020/12/05 06:23:02;;;;;;;;;;;2.80;75.70;;;;;;5074703;28;19908;-80
2020/12/05 06:25:28;;;;;;;;;;;2.80;75.70;;;;;;5093440;28;19924;-80
2020/12/05 06:28:01;;;;;;;;;;;2.80;75.70;;;;;;5075458;28;19999;-80
2020/12/05 06:30:28;;;;;;;;;;;2.80;75.70;;;;;;5093267;28;21485;-80
2020/12/05 06:32:56;;;;;;;;;;;2.80;75.70;;;;;;5075310;28;19951;-81
2020/12/05 06:35:21;;;;;;;;;;;2.80;75.70;;;;;;5093746;28;19912;-81
2020/12/05 06:37:48;;;;;;;;;;;2.80;75.70;;;;;;5093229;28;19908;-81
2020/12/05 06:40:13;;;;;;;;;;;2.80;75.80;;;;;;5093921;28;19908;-81
2020/12/05 06:42:43;;;;;;;;;;;2.80;75.80;;;;;;5074528;28;19916;-81
2020/12/05 06:45:28;;;;;;;;;;;2.80;75.80;;;;;;5093423;28;19913;-81
2020/12/05 06:47:54;;;;;;;;;;;2.80;75.80;;;;;;5092992;28;19908;-81
2020/12/05 06:50:33;;;;;;;;;;;2.80;75.80;;;;;;5093643;28;19915;-81
2020/12/05 06:52:58;;;;;;;;;;;2.80;75.80;;;;;;5075105;28;19962;-81
2020/12/05 06:55:31;;;;;;;;;;;2.80;75.80;;;;;;5075537;28;19920;-81
2020/12/05 06:58:04;;;;;;;;;;;2.80;75.80;;;;;;5093348;28;20422;-81
2020/12/05 07:00:31;;;;;;;;;;;2.70;75.80;;;;;;5074929;28;19911;-81
2020/12/05 07:02:57;;;;;;;;;;;2.80;75.80;;;;;;5092597;28;20286;-82
2020/12/05 07:05:23;;;;;;;;;;;2.80;75.90;;;;;;5074213;28;19999;-82
2020/12/05 07:07:50;;;;;;;;;;;2.70;75.80;;;;;;5092860;28;20636;-82
2020/12/05 07:10:16;;;;;;;;;;;2.70;75.80;;;;;;5074956;28;19912;-82
2020/12/05 07:12:42;;;;;;;;;;;2.70;75.90;;;;;;5074619;28;20038;-82
2020/12/05 07:15:25;;;;;;;;;;;2.70;75.90;;;;;;5075009;28;19986;-82
2020/12/05 07:17:51;;;;;;;;;;;2.70;75.90;;;;;;5092787;28;19970;-83
2020/12/05 07:20:17;;;;;;;;;;;2.70;76.00;;;;;;5093003;28;19912;-82
2020/12/05 07:22:44;;;;;;;;;;;2.70;76.10;;;;;;5092746;28;20353;-82
2020/12/05 07:25:10;;;;;;;;;;;2.70;76.10;;;;;;5092981;28;20399;-82
2020/12/05 07:27:36;;;;;;;;;;;2.70;76.10;;;;;;5074620;28;20266;-82
2020/12/05 07:30:01;;;;;;;;;;;2.80;76.20;;;;;;5047259;28;19916;-82
2020/12/05 07:32:31;;;;;;;;;;;2.80;76.10;;;;;;5038144;28;19913;-82
2020/12/05 07:34:59;;;;;;;;;;;2.80;76.10;;;;;;5079431;28;19919;-85
2020/12/05 07:37:26;;;;;;;;;;;2.80;76.10;;;;;;5075281;28;19908;-85
2020/12/05 07:39:51;;;;;;;;;;;2.80;76.20;;;;;;5074849;28;20486;-85
2020/12/05 07:42:17;;;;;;;;;;;2.80;76.10;;;;;;5091329;28;19991;-86
2020/12/05 07:44:42;;;;;;;;;;;2.80;76.10;;;;;;5067432;28;19924;-85
2020/12/05 07:47:15;;;;;;;;;;;2.80;76.10;;;;;;5057976;28;19973;-85
2020/12/05 07:49:54;;;;;;;;;;;2.80;76.10;;;;;;5074390;28;20022;-82
2020/12/05 07:52:20;;;;;;;;;;;2.80;76.10;;;;;;5092745;28;19919;-82
2020/12/05 07:54:50;;;;;;;;;;;2.80;76.10;;;;;;5091552;28;19916;-82
2020/12/05 07:57:15;;;;;;;;;;;2.80;76.10;;;;;;5073875;28;19933;-82
2020/12/05 07:59:41;;;;;;;;;;;2.80;76.10;;;;;;5056654;28;20312;-82
2020/12/05 08:02:13;;;;;;;;;;;2.90;76.20;;;;;;5092568;28;19916;-82
2020/12/05 08:04:52;;;;;;;;;;;2.90;76.20;;;;;;5087232;28;19918;-82
2020/12/05 08:07:33;;;;;;;;;;;2.90;76.10;;;;;;5096611;28;19985;-82
2020/12/05 08:09:59;;;;;;;;;;;2.90;76.10;;;;;;5096629;28;19953;-82
2020/12/05 08:12:43;;;;;;;;;;;2.90;76.10;;;;;;5078443;28;19912;-82
2020/12/05 08:15:10;;;;;;;;;;;2.90;76.00;;;;;;5096230;28;20096;-82
2020/12/05 08:17:36;;;;;;;;;;;2.90;76.00;;;;;;5092872;28;19912;-82
2020/12/05 08:20:02;;;;;;;;;;;3.00;76.10;;;;;;5078064;28;19912;-82
2020/12/05 08:22:30;;;;;;;;;;;3.00;76.10;;;;;;5096199;28;19908;-82
2020/12/05 08:24:57;;;;;;;;;;;3.00;76.30;;;;;;5116127;22;19924;-82
2020/12/05 08:27:23;;;;;;;;;;;3.00;76.30;;;;;;5076486;28;19919;-82
2020/12/05 08:29:49;;;;;;;;;;;3.00;76.20;;;;;;5077859;28;19912;-83
2020/12/05 08:32:18;;;;;;;;;;;3.00;76.30;;;;;;5075538;28;19916;-82
2020/12/05 08:34:44;;;;;;;;;;;3.10;76.20;;;;;;5080898;28;19912;-86
2020/12/05 08:37:15;;;;;;;;;;;3.10;76.20;;;;;;5045111;28;19928;-82
2020/12/05 08:39:41;;;;;;;;;;;3.10;76.10;;;;;;5091491;28;19992;-84
2020/12/05 08:42:06;;;;;;;;;;;3.20;76.10;;;;;;5076612;28;19943;-81
2020/12/05 08:44:32;;;;;;;;;;;3.20;76.00;;;;;;5077844;28;19916;-83
2020/12/05 08:47:02;;;;;;;;;;;3.30;76.00;;;;;;5065660;28;19924;-84
2020/12/05 08:49:28;;;;;;;;;;;3.30;75.90;;;;;;5058431;28;19916;-83
2020/12/05 08:51:57;;;;;;;;;;;3.30;75.90;;;;;;5078569;28;19908;-82
2020/12/05 08:54:23;;;;;;;;;;;3.40;75.90;;;;;;5077836;28;19917;-82
2020/12/05 08:56:48;;;;;;;;;;;3.40;75.90;;;;;;5056175;28;19917;-82
2020/12/05 08:59:23;;;;;;;;;;;3.50;75.90;;;;;;5095347;28;19916;-82
2020/12/05 09:01:52;;;;;;;;;;;3.50;75.90;;;;;;5077008;28;19939;-82
2020/12/05 09:04:27;;;;;;;;;;;3.60;75.90;;;;;;5066989;28;19908;-82
2020/12/05 09:06:53;;;;;;;;;;;3.60;75.90;;;;;;5088011;28;19912;-80
2020/12/05 09:09:29;;;;;;;;;;;3.70;75.90;;;;;;5092898;28;19919;-84
2020/12/05 09:12:02;;;;;;;;;;;3.80;76.10;;;;;;5074037;28;19908;-84
2020/12/05 09:14:27;;;;;;;;;;;3.80;76.00;;;;;;5076698;28;19908;-84
2020/12/05 09:16:53;;;;;;;;;;;3.90;76.00;;;;;;5061184;28;20324;-83
2020/12/05 09:19:22;;;;;;;;;;;4.00;75.90;;;;;;5070529;28;19912;-83
2020/12/05 09:21:48;;;;;;;;;;;4.10;75.90;;;;;;5087296;28;19909;-83
2020/12/05 09:24:13;;;;;;;;;;;4.10;75.90;;;;;;5070353;28;19923;-83
2020/12/05 09:26:55;;;;;;;;;;;4.20;76.00;;;;;;5056274;28;19920;-83
2020/12/05 09:29:22;;;;;;;;;;;4.20;76.30;;;;;;5089055;28;19930;-83
2020/12/05 09:31:51;;;;;;;;;;;4.30;76.40;;;;;;5076551;28;19915;-83
2020/12/05 09:34:33;;;;;;;;;;;4.30;76.30;;;;;;5059951;28;19919;-83
2020/12/05 09:36:59;;;;;;;;;;;4.40;76.40;;;;;;5070927;28;20281;-83
2020/12/05 09:39:25;;;;;;;;;;;4.40;76.50;;;;;;5094451;28;19919;-84
2020/12/05 09:41:50;;;;;;;;;;;4.40;77.00;;;;;;5076010;28;19913;-84
2020/12/05 09:44:16;;;;;;;;;;;4.50;77.40;;;;;;5056188;28;19912;-84
2020/12/05 09:46:41;;;;;;;;;;;4.50;77.60;;;;;;5089433;28;19916;-83
2020/12/05 09:49:07;;;;;;;;;;;4.50;77.40;;;;;;5084630;28;20007;-83
2020/12/05 09:51:32;;;;;;;;;;;4.60;77.50;;;;;;5059229;28;19912;-83
2020/12/05 09:53:58;;;;;;;;;;;4.60;77.40;;;;;;5059116;28;19920;-83
2020/12/05 09:56:23;;;;;;;;;;;4.60;77.40;;;;;;5076230;28;19942;-83
2020/12/05 09:58:49;;;;;;;;;;;4.70;77.40;;;;;;5074507;28;19961;-83
2020/12/05 10:01:14;;;;;;;;;;;4.70;77.50;;;;;;5039273;28;20293;-83
2020/12/05 10:03:40;;;;;;;;;;;4.70;77.50;;;;;;5073473;28;19909;-83
2020/12/05 10:06:05;;;;;;;;;;;4.80;77.50;;;;;;5068277;28;19916;-83
2020/12/05 10:08:33;;;;;;;;;;;4.80;77.60;;;;;;5067222;28;19921;-82
2020/12/05 10:10:59;;;;;;;;;;;4.80;77.60;;;;;;5045224;28;19959;-83
2020/12/05 10:13:25;;;;;;;;;;;4.90;78.00;;;;;;5069837;28;19955;-83
2020/12/05 10:15:50;;;;;;;;;;;4.90;77.80;;;;;;5068093;28;19911;-83
2020/12/05 10:18:16;;;;;;;;;;;5.00;77.70;;;;;;5069478;28;20300;-83
2020/12/05 10:20:50;;;;;;;;;;;5.00;77.50;;;;;;5041270;28;19955;-83
2020/12/05 10:23:16;;;;;;;;;;;5.10;77.40;;;;;;5055868;28;19954;-83
2020/12/05 10:25:41;;;;;;;;;;;5.20;77.60;;;;;;5054463;28;20014;-83
2020/12/05 10:28:06;;;;;;;;;;;5.20;77.60;;;;;;5075060;28;20387;-83
2020/12/05 10:30:32;;;;;;;;;;;5.30;77.60;;;;;;5093768;28;19919;-83
2020/12/05 10:32:57;;;;;;;;;;;5.40;77.50;;;;;;5075207;28;20414;-83
2020/12/05 10:35:23;;;;;;;;;;;5.50;77.40;;;;;;5075485;28;19916;-83
2020/12/05 10:37:48;;;;;;;;;;;5.60;78.00;;;;;;5093113;28;19912;-83
2020/12/05 10:40:14;;;;;;;;;;;5.60;77.60;;;;;;5058715;28;19957;-83
2020/12/05 10:42:39;;;;;;;;;;;5.70;77.60;;;;;;5074021;28;19912;-83
2020/12/05 10:45:05;;;;;;;;;;;5.80;78.20;;;;;;5092098;28;20011;-83
2020/12/05 10:47:30;;;;;;;;;;;5.80;77.90;;;;;;5074355;28;19966;-83
2020/12/05 10:49:56;;;;;;;;;;;5.90;77.60;;;;;;5074285;28;19916;-83
2020/12/05 10:52:21;;;;;;;;;;;6.00;77.80;;;;;;5058166;28;19962;-84
2020/12/05 10:54:47;;;;;;;;;;;6.10;77.80;;;;;;5074991;28;19923;-83
2020/12/05 10:57:12;;;;;;;;;;;6.20;77.60;;;;;;5075499;28;19963;-83
2020/12/05 10:59:38;;;;;;;;;;;6.20;77.30;;;;;;5093497;28;19923;-83
2020/12/05 11:02:03;;;;;;;;;;;6.30;77.30;;;;;;5075069;28;20011;-83
2020/12/05 11:04:29;;;;;;;;;;;6.40;77.20;;;;;;5075414;28;19916;-83
2020/12/05 11:06:54;;;;;;;;;;;6.50;77.00;;;;;;5074970;28;19947;-84
2020/12/05 11:09:20;;;;;;;;;;;6.60;76.80;;;;;;5092703;28;19912;-83
2020/12/05 11:11:45;;;;;;;;;;;6.70;76.80;;;;;;5074635;28;19919;-83
2020/12/05 11:14:11;;;;;;;;;;;6.80;76.70;;;;;;5075284;28;19912;-83
2020/12/05 11:16:36;;;;;;;;;;;6.80;76.30;;;;;;5093277;28;20026;-83
2020/12/05 11:19:02;;;;;;;;;;;6.80;75.90;;;;;;5092971;28;19916;-83
2020/12/05 11:21:27;;;;;;;;;;;6.90;75.90;;;;;;5093209;28;19919;-84
2020/12/05 11:23:53;;;;;;;;;;;7.00;75.60;;;;;;5092838;28;19916;-83
2020/12/05 11:26:19;;;;;;;;;;;7.00;75.30;;;;;;5075179;28;19974;-83
2020/12/05 11:28:45;;;;;;;;;;;7.10;75.20;;;;;;5074812;28;20354;-83
2020/12/05 11:31:10;;;;;;;;;;;7.20;75.10;;;;;;5075054;28;19916;-83
2020/12/05 11:33:36;;;;;;;;;;;7.30;74.90;;;;;;5075100;28;19912;-83
2020/12/05 11:36:02;;;;;;;;;;;7.30;74.80;;;;;;5092747;28;19912;-83
2020/12/05 11:38:27;;;;;;;;;;;7.40;74.60;;;;;;5074978;28;19923;-83
2020/12/05 11:40:53;;;;;;;;;;;7.40;74.60;;;;;;5076456;28;20365;-83
2020/12/05 11:43:18;;;;;;;;;;;7.50;74.40;;;;;;5079120;28;20358;-83
2020/12/05 11:45:45;;;;;;;;;;;7.50;73.90;;;;;;5096812;28;19908;-84
2020/12/05 11:48:11;;;;;;;;;;;7.50;73.80;;;;;;5078973;28;20380;-83
2020/12/05 11:50:36;;;;;;;;;;;7.60;73.40;;;;;;5078966;28;19916;-83
2020/12/05 11:53:02;;;;;;;;;;;7.60;73.20;;;;;;5078625;28;19915;-83
2020/12/05 11:55:28;;;;;;;;;;;7.60;72.80;;;;;;5078718;28;19917;-83
2020/12/05 11:57:53;;;;;;;;;;;7.60;72.40;;;;;;5096581;28;19970;-83
2020/12/05 12:00:19;;;;;;;;;;;7.60;71.90;;;;;;5096880;28;19957;-83
2020/12/05 12:02:44;;;;;;;;;;;7.60;71.90;;;;;;5096474;28;19999;-83
2020/12/05 12:05:10;;;;;;;;;;;7.60;71.80;;;;;;5078871;28;20357;-83
2020/12/05 12:07:35;;;;;;;;;;;7.60;71.50;;;;;;5096774;28;19912;-84
2020/12/05 12:10:01;;;;;;;;;;;7.70;72.00;;;;;;5078232;28;19912;-83
2020/12/05 12:12:26;;;;;;;;;;;7.60;72.10;;;;;;5078554;28;19969;-84
2020/12/05 12:14:52;;;;;;;;;;;7.70;72.20;;;;;;5078140;28;19912;-83
2020/12/05 12:17:17;;;;;;;;;;;7.70;72.30;;;;;;5096486;28;20353;-84
2020/12/05 12:19:43;;;;;;;;;;;7.70;72.30;;;;;;5096438;28;19920;-83
2020/12/05 12:22:09;;;;;;;;;;;7.80;72.40;;;;;;5061160;28;19912;-83
2020/12/05 12:24:35;;;;;;;;;;;7.80;71.70;;;;;;5095751;28;20435;-83
2020/12/05 12:27:00;;;;;;;;;;;7.80;71.50;;;;;;5095503;28;20430;-83
2020/12/05 12:29:26;;;;;;;;;;;7.80;71.50;;;;;;5077419;28;19912;-83
2020/12/05 12:31:52;;;;;;;;;;;7.80;70.70;;;;;;5076642;28;19961;-83
2020/12/05 12:34:18;;;;;;;;;;;7.80;71.10;;;;;;5089248;28;19938;-84
2020/12/05 12:36:43;;;;;;;;;;;7.80;71.30;;;;;;5078105;28;19916;-84
2020/12/05 12:39:09;;;;;;;;;;;7.80;71.40;;;;;;5095655;28;19916;-82
2020/12/05 12:41:34;;;;;;;;;;;7.90;71.50;;;;;;5052416;28;19923;-83
2020/12/05 12:44:00;;;;;;;;;;;7.90;71.30;;;;;;5094351;28;20386;-84
2020/12/05 12:46:26;;;;;;;;;;;7.90;71.50;;;;;;5061166;28;20327;-83
2020/12/05 12:48:52;;;;;;;;;;;7.90;71.40;;;;;;5060911;28;19919;-84
2020/12/05 12:51:21;;;;;;;;;;;7.90;71.50;;;;;;5077110;28;19999;-83
2020/12/05 12:53:46;;;;;;;;;;;7.90;71.50;;;;;;5077380;28;19932;-83
2020/12/05 12:56:15;;;;;;;;;;;7.90;71.50;;;;;;5063197;28;20458;-84
2020/12/05 12:58:48;;;;;;;;;;;7.90;71.10;;;;;;5075793;28;19996;-84
2020/12/05 13:01:17;;;;;;;;;;;7.90;71.40;;;;;;5057693;28;20052;-83
2020/12/05 13:03:43;;;;;;;;;;;7.90;71.40;;;;;;5061935;28;19993;-82
2020/12/05 13:06:15;;;;;;;;;;;7.90;71.00;;;;;;5063183;28;19975;-82
2020/12/05 13:08:41;;;;;;;;;;;7.90;71.00;;;;;;5089439;28;19919;-82
2020/12/05 13:11:06;;;;;;;;;;;7.80;70.80;;;;;;5094210;28;20361;-82
2020/12/05 13:13:32;;;;;;;;;;;7.90;71.40;;;;;;5093430;28;19908;-82
2020/12/05 13:15:57;;;;;;;;;;;7.80;70.30;;;;;;5067127;28;19923;-82
2020/12/05 13:18:23;;;;;;;;;;;7.80;70.40;;;;;;5077112;28;19920;-82
2020/12/05 13:20:48;;;;;;;;;;;7.80;70.50;;;;;;5059931;28;20285;-82
2020/12/05 13:23:14;;;;;;;;;;;7.80;70.10;;;;;;5077104;28;19917;-82
2020/12/05 13:25:39;;;;;;;;;;;7.80;70.00;;;;;;5059991;28;19931;-82
2020/12/05 13:28:05;;;;;;;;;;;7.80;68.80;;;;;;5090751;28;19913;-82
2020/12/05 13:30:30;;;;;;;;;;;7.80;69.20;;;;;;5055785;28;19935;-82
2020/12/05 13:32:56;;;;;;;;;;;7.80;69.30;;;;;;5074336;28;19915;-82
2020/12/05 13:35:21;;;;;;;;;;;7.80;69.00;;;;;;5079064;28;19919;-82
2020/12/05 13:37:47;;;;;;;;;;;7.70;69.10;;;;;;5076187;28;19997;-82
2020/12/05 13:40:12;;;;;;;;;;;7.70;69.10;;;;;;5076652;28;19912;-82
2020/12/05 13:42:38;;;;;;;;;;;7.80;69.20;;;;;;5094849;28;19912;-82
2020/12/05 13:45:04;;;;;;;;;;;7.80;68.90;;;;;;5076228;28;19938;-82
2020/12/05 13:47:30;;;;;;;;;;;7.80;69.30;;;;;;5073925;28;19922;-82
2020/12/05 13:49:55;;;;;;;;;;;7.80;69.20;;;;;;5076166;28;20003;-82
2020/12/05 13:52:21;;;;;;;;;;;7.80;68.90;;;;;;5059589;28;19965;-82
2020/12/05 13:54:46;;;;;;;;;;;7.80;69.20;;;;;;5076278;28;19916;-82
2020/12/05 13:57:12;;;;;;;;;;;7.80;68.90;;;;;;5041379;28;19913;-82
2020/12/05 13:59:37;;;;;;;;;;;7.80;68.80;;;;;;5074140;28;19961;-82
2020/12/05 14:02:03;;;;;;;;;;;7.70;68.70;;;;;;5056087;28;19918;-83
2020/12/05 14:04:29;;;;;;;;;;;7.70;68.90;;;;;;5038643;28;19912;-82
2020/12/05 14:06:55;;;;;;;;;;;7.70;68.90;;;;;;5091303;28;19935;-82
2020/12/05 14:09:21;;;;;;;;;;;7.70;69.00;;;;;;5094008;28;20377;-82
2020/12/05 14:11:47;;;;;;;;;;;7.70;68.70;;;;;;5075730;28;19908;-82
2020/12/05 14:14:13;;;;;;;;;;;7.70;68.70;;;;;;5082973;28;19916;-83
2020/12/05 14:16:39;;;;;;;;;;;7.70;68.80;;;;;;5055695;28;19974;-83
2020/12/05 14:19:04;;;;;;;;;;;7.70;68.90;;;;;;5038131;28;19921;-83
2020/12/05 14:21:30;;;;;;;;;;;7.70;69.10;;;;;;5038987;28;20013;-83
2020/12/05 14:26:24;;;;;;;;;;;7.60;68.80;;;;;;5091406;28;20380;-86
2020/12/05 14:28:49;;;;;;;;;;;7.60;69.00;;;;;;5068746;28;19908;-86
2020/12/05 14:31:18;;;;;;;;;;;7.60;69.10;;;;;;5089187;28;19908;-85
2020/12/05 14:33:44;;;;;;;;;;;7.60;69.20;;;;;;5090267;28;19918;-85